createdAt,value
2019-02-21T00:02:13.449Z,27.73
2019-02-21T00:04:41.908Z,27.33
2019-02-21T00:07:10.356Z,25.03
2019-02-21T00:09:38.744Z,29.27
2019-02-21T00:12:07.124Z,22.63
2019-02-21T00:14:35.519Z,26.00
2019-02-21T00:17:03.963Z,27.40
2019-02-21T00:19:32.351Z,27.47
2019-02-21T00:22:00.735Z,23.87
2019-02-21T00:24:29.111Z,29.40
2019-02-21T00:26:57.496Z,24.63
2019-02-21T00:29:25.872Z,30.10
2019-02-21T00:31:54.260Z,23.03
2019-02-21T00:34:22.636Z,24.47
2019-02-21T00:36:51.093Z,31.67
2019-02-21T00:39:19.478Z,24.87
2019-02-21T00:41:47.856Z,24.47
2019-02-21T00:44:16.244Z,27.40
2019-02-21T00:46:44.624Z,26.40
2019-02-21T00:49:12.996Z,33.57
2019-02-21T00:51:41.392Z,24.47
2019-02-21T00:54:09.803Z,24.27
2019-02-21T00:56:38.232Z,25.40
2019-02-21T00:59:06.611Z,23.93
2019-02-21T01:01:35.004Z,24.87
2019-02-21T01:04:03.380Z,25.97
2019-02-21T01:06:31.759Z,28.80
2019-02-21T01:09:00.152Z,24.23
2019-02-21T01:11:28.539Z,25.50
2019-02-21T01:13:56.919Z,22.77
2019-02-21T01:16:25.291Z,27.37
2019-02-21T01:18:53.675Z,27.57
2019-02-21T01:21:22.053Z,27.23
2019-02-21T01:23:50.448Z,27.63
2019-02-21T01:26:18.822Z,28.17
2019-02-21T01:28:47.196Z,28.27
2019-02-21T01:31:15.583Z,24.30
2019-02-21T01:33:43.963Z,21.33
2019-02-21T01:36:12.360Z,27.47
2019-02-21T01:38:40.739Z,21.27
2019-02-21T01:41:09.127Z,24.93
2019-02-21T01:43:37.503Z,30.00
2019-02-21T01:46:05.900Z,30.50
2019-02-21T01:48:34.273Z,24.07
2019-02-21T01:51:02.645Z,22.97
2019-02-21T01:53:31.032Z,25.27
2019-02-21T01:55:59.424Z,28.47
2019-02-21T01:58:27.819Z,27.37
2019-02-21T02:00:56.188Z,26.20
2019-02-21T02:03:24.564Z,24.33
2019-02-21T02:05:53.016Z,23.17
2019-02-21T02:08:21.432Z,27.87
2019-02-21T02:10:49.807Z,30.13
2019-02-21T02:13:24.632Z,23.67
2019-02-21T02:15:48.300Z,29.83
2019-02-21T02:18:16.679Z,25.23
2019-02-21T02:20:45.067Z,28.87
2019-02-21T02:23:13.448Z,30.80
2019-02-21T02:25:41.835Z,32.43
2019-02-21T02:28:10.226Z,24.43
2019-02-21T02:30:57.936Z,27.70
2019-02-21T02:33:26.328Z,24.93
2019-02-21T02:35:54.719Z,31.03
2019-02-21T02:38:23.085Z,29.37
2019-02-21T02:40:51.477Z,29.53
2019-02-21T02:43:20.025Z,27.10
2019-02-21T02:45:48.420Z,27.47
2019-02-21T02:48:16.800Z,30.73
2019-02-21T02:50:45.189Z,28.27
2019-02-21T02:53:13.575Z,28.23
2019-02-21T02:55:41.983Z,31.53
2019-02-21T02:58:10.351Z,29.47
2019-02-21T03:00:58.075Z,32.43
2019-02-21T03:03:26.688Z,29.33
2019-02-21T03:05:55.082Z,35.23
2019-02-21T03:08:23.455Z,32.10
2019-02-21T03:10:51.844Z,37.23
2019-02-21T03:13:20.237Z,40.93
2019-02-21T03:15:48.611Z,42.57
2019-02-21T03:18:16.992Z,39.23
2019-02-21T03:20:45.396Z,36.40
2019-02-21T03:23:13.777Z,33.63
2019-02-21T03:25:42.161Z,39.57
2019-02-21T03:28:10.551Z,38.77
2019-02-21T03:30:38.942Z,38.20
2019-02-21T03:33:07.335Z,36.80
2019-02-21T03:35:35.716Z,38.70
2019-02-21T03:38:04.113Z,39.87
2019-02-21T03:40:32.488Z,40.57
2019-02-21T03:43:00.867Z,38.70
2019-02-21T03:45:29.262Z,43.03
2019-02-21T03:47:57.639Z,46.13
2019-02-21T03:50:26.027Z,36.73
2019-02-21T03:52:54.407Z,45.73
2019-02-21T03:55:23.037Z,47.60
2019-02-21T03:57:51.423Z,45.87
2019-02-21T04:00:19.825Z,37.80
2019-02-21T04:02:48.268Z,48.77
2019-02-21T04:05:16.893Z,45.33
2019-02-21T04:07:45.267Z,44.83
2019-02-21T04:10:13.644Z,40.53
2019-02-21T04:12:42.037Z,45.33
2019-02-21T04:15:12.145Z,42.73
2019-02-21T04:17:40.527Z,48.13
2019-02-21T04:20:09.744Z,46.57
2019-02-21T04:22:38.139Z,45.90
2019-02-21T04:25:07.088Z,45.50
2019-02-21T04:27:35.472Z,55.00
2019-02-21T04:30:04.298Z,47.97
2019-02-21T04:32:32.671Z,45.90
2019-02-21T04:35:01.061Z,49.33
2019-02-21T04:37:29.455Z,55.63
2019-02-21T04:39:58.777Z,52.63
2019-02-21T04:42:27.151Z,49.83
2019-02-21T04:44:55.537Z,51.97
2019-02-21T04:47:23.914Z,58.43
2019-02-21T04:49:52.300Z,57.40
2019-02-21T04:52:20.689Z,50.00
2019-02-21T04:54:49.085Z,61.37
2019-02-21T04:57:17.460Z,53.73
2019-02-21T04:59:45.847Z,53.17
2019-02-21T05:02:14.243Z,54.60
2019-02-21T05:04:42.643Z,50.60
2019-02-21T05:07:11.025Z,48.87
2019-02-21T05:09:39.408Z,48.60
2019-02-21T05:12:07.802Z,47.70
2019-02-21T05:14:36.192Z,48.97
2019-02-21T05:17:04.654Z,52.97
2019-02-21T05:19:33.037Z,50.80
2019-02-21T05:22:01.435Z,48.10
2019-02-21T05:24:29.824Z,48.53
2019-02-21T05:26:59.860Z,47.63
2019-02-21T05:29:28.244Z,50.70
2019-02-21T05:32:04.297Z,49.60
2019-02-21T05:34:34.296Z,49.97
2019-02-21T05:37:20.585Z,49.50
2019-02-21T05:39:53.580Z,46.53
2019-02-21T05:42:35.555Z,48.50
2019-02-21T05:45:14.983Z,47.37
2019-02-21T05:47:50.671Z,53.93
2019-02-21T05:50:23.649Z,60.93
2019-02-21T05:52:59.672Z,54.60
2019-02-21T05:55:29.696Z,49.83
2019-02-21T05:58:02.866Z,51.27
2019-02-21T06:00:36.934Z,51.07
2019-02-21T06:03:10.269Z,49.77
2019-02-21T06:05:45.963Z,51.57
2019-02-21T06:08:15.995Z,48.83
2019-02-21T06:10:46.015Z,48.87
2019-02-21T06:13:34.067Z,49.57
2019-02-21T06:16:04.103Z,49.07
2019-02-21T06:18:36.703Z,46.30
2019-02-21T06:21:06.729Z,39.63
2019-02-21T06:23:49.358Z,47.17
2019-02-21T06:26:25.340Z,47.97
2019-02-21T06:29:09.810Z,51.60
2019-02-21T06:31:37.452Z,47.93
2019-02-21T06:34:05.830Z,50.40
2019-02-21T06:36:34.215Z,52.60
2019-02-21T06:39:02.595Z,52.23
2019-02-21T06:41:30.991Z,48.23
2019-02-21T06:43:59.368Z,50.87
2019-02-21T06:46:27.745Z,48.67
2019-02-21T06:48:56.136Z,60.00
2019-02-21T06:51:24.515Z,54.83
2019-02-21T06:53:53.270Z,57.53
2019-02-21T06:56:21.760Z,54.83
2019-02-21T06:58:50.140Z,56.43
2019-02-21T07:01:26.707Z,52.37
2019-02-21T07:03:48.631Z,51.67
2019-02-21T07:06:19.095Z,46.20
2019-02-21T07:08:47.120Z,47.90
2019-02-21T07:11:15.505Z,49.10
2019-02-21T07:13:43.896Z,48.77
2019-02-21T07:16:13.158Z,47.63
2019-02-21T07:18:41.788Z,52.73
2019-02-21T07:21:10.208Z,49.30
2019-02-21T07:23:43.560Z,46.07
2019-02-21T07:26:08.704Z,43.33
2019-02-21T07:28:37.083Z,48.63
2019-02-21T07:31:05.472Z,49.50
2019-02-21T07:33:33.855Z,48.53
2019-02-21T07:36:02.260Z,45.17
2019-02-21T07:38:30.644Z,50.40
2019-02-21T07:40:59.158Z,51.77
2019-02-21T07:43:27.596Z,48.43
2019-02-21T07:45:55.977Z,48.50
2019-02-21T07:48:24.385Z,43.90
2019-02-21T07:50:52.757Z,46.27
2019-02-21T07:53:21.133Z,49.33
2019-02-21T07:55:49.522Z,43.70
2019-02-21T07:58:17.912Z,42.53
2019-02-21T08:00:46.296Z,31.80
2019-02-21T08:03:14.672Z,34.27
2019-02-21T08:05:43.083Z,45.97
2019-02-21T08:08:11.472Z,47.37
2019-02-21T08:10:39.863Z,47.07
2019-02-21T08:13:08.248Z,44.07
2019-02-21T08:15:36.636Z,43.47
2019-02-21T08:18:05.031Z,42.53
2019-02-21T08:20:37.078Z,42.37
2019-02-21T08:23:03.574Z,40.90
2019-02-21T08:25:31.995Z,43.03
2019-02-21T08:28:00.375Z,36.70
2019-02-21T08:30:29.299Z,45.90
2019-02-21T08:33:11.863Z,40.37
2019-02-21T08:35:40.250Z,40.30
2019-02-21T08:38:08.628Z,46.30
2019-02-21T08:40:37.023Z,47.63
2019-02-21T08:43:05.408Z,43.47
2019-02-21T08:45:33.792Z,37.80
2019-02-21T08:48:02.204Z,41.23
2019-02-21T08:50:30.596Z,40.43
2019-02-21T08:53:01.046Z,41.30
2019-02-21T08:55:29.075Z,41.77
2019-02-21T08:57:57.479Z,45.87
2019-02-21T09:00:25.863Z,51.40
2019-02-21T09:02:54.251Z,52.07
2019-02-21T09:05:22.715Z,32.00
2019-02-21T09:07:51.096Z,30.37
2019-02-21T09:10:19.509Z,39.73
2019-02-21T09:12:48.704Z,34.90
2019-02-21T09:15:17.695Z,35.20
2019-02-21T09:17:46.091Z,40.87
2019-02-21T09:20:14.554Z,36.43
2019-02-21T09:22:43.016Z,35.70
2019-02-21T09:25:13.146Z,38.80
2019-02-21T09:27:41.544Z,31.10
2019-02-21T09:30:12.831Z,39.40
2019-02-21T09:32:42.017Z,37.70
2019-02-21T09:35:10.571Z,36.83
2019-02-21T09:37:39.119Z,32.97
2019-02-21T09:40:28.489Z,39.83
2019-02-21T09:42:56.948Z,33.67
2019-02-21T09:45:25.341Z,36.47
2019-02-21T09:47:53.728Z,35.33
2019-02-21T09:50:22.116Z,37.83
2019-02-21T09:52:50.497Z,38.63
2019-02-21T09:55:18.970Z,39.00
2019-02-21T09:57:47.349Z,36.87
2019-02-21T10:00:20.180Z,32.70
2019-02-21T10:02:48.577Z,39.57
2019-02-21T10:05:16.955Z,35.93
2019-02-21T10:07:45.333Z,33.10
2019-02-21T10:10:15.659Z,34.33
2019-02-21T10:12:44.055Z,31.00
2019-02-21T10:15:14.299Z,24.30
2019-02-21T10:17:42.862Z,37.33
2019-02-21T10:20:16.731Z,35.80
2019-02-21T10:22:45.116Z,40.30
2019-02-21T10:25:23.142Z,35.43
2019-02-21T10:27:51.763Z,36.50
2019-02-21T10:30:22.307Z,39.20
2019-02-21T10:32:50.687Z,33.10
2019-02-21T10:35:19.071Z,38.27
2019-02-21T10:37:47.471Z,39.57
2019-02-21T10:40:16.403Z,37.90
2019-02-21T10:42:44.794Z,33.87
2019-02-21T10:45:18.487Z,37.87
2019-02-21T10:47:46.947Z,38.47
2019-02-21T10:50:19.513Z,34.40
2019-02-21T10:52:48.332Z,37.53
2019-02-21T10:55:17.467Z,41.97
2019-02-21T10:57:45.920Z,40.97
2019-02-21T11:00:19.883Z,28.33
2019-02-21T11:02:48.264Z,41.37
2019-02-21T11:05:16.656Z,37.77
2019-02-21T11:07:45.116Z,37.50
2019-02-21T11:10:15.799Z,35.80
2019-02-21T11:12:44.192Z,34.17
2019-02-21T11:15:15.116Z,30.53
2019-02-21T11:17:43.496Z,45.60
2019-02-21T11:20:14.788Z,32.90
2019-02-21T11:22:43.275Z,36.87
2019-02-21T11:25:12.325Z,38.57
2019-02-21T11:27:40.703Z,31.67
2019-02-21T11:30:12.099Z,27.83
2019-02-21T11:32:40.487Z,32.73
2019-02-21T11:35:08.956Z,32.40
2019-02-21T11:37:43.285Z,35.37
2019-02-21T11:40:13.662Z,33.37
2019-02-21T11:42:42.079Z,35.30
2019-02-21T11:45:13.344Z,29.50
2019-02-21T11:47:41.740Z,24.80
2019-02-21T11:50:12.363Z,31.90
2019-02-21T11:52:40.743Z,28.33
2019-02-21T11:55:11.843Z,31.93
2019-02-21T11:57:40.225Z,31.40
2019-02-21T12:00:13.093Z,27.23
2019-02-21T12:02:41.489Z,27.03
2019-02-21T12:05:17.060Z,28.57
2019-02-21T12:07:39.992Z,25.83
2019-02-21T12:10:10.721Z,30.57
2019-02-21T12:12:39.112Z,30.90
2019-02-21T12:15:10.133Z,27.90
2019-02-21T12:17:38.603Z,29.33
2019-02-21T12:20:12.436Z,27.30
2019-02-21T12:22:40.836Z,26.43
2019-02-21T12:25:11.455Z,34.97
2019-02-21T12:27:39.866Z,26.30
2019-02-21T12:30:11.079Z,36.33
2019-02-21T12:32:39.464Z,29.43
2019-02-21T12:35:08.324Z,20.43
2019-02-21T12:37:36.707Z,28.53
2019-02-21T12:40:08.403Z,28.87
2019-02-21T12:42:36.791Z,25.53
2019-02-21T12:45:08.269Z,31.47
2019-02-21T12:47:36.650Z,37.07
2019-02-21T12:50:07.287Z,27.03
2019-02-21T12:52:35.668Z,30.03
2019-02-21T12:55:05.503Z,34.70
2019-02-21T12:57:33.880Z,25.23
2019-02-21T13:00:02.345Z,33.63
2019-02-21T13:02:30.735Z,32.33
2019-02-21T13:04:59.120Z,32.63
2019-02-21T13:07:27.508Z,29.03
2019-02-21T13:09:55.887Z,27.17
2019-02-21T13:12:24.275Z,30.40
2019-02-21T13:14:52.657Z,18.77
2019-02-21T13:17:21.049Z,27.03
2019-02-21T13:19:49.432Z,30.97
2019-02-21T13:22:17.830Z,25.00
2019-02-21T13:24:46.277Z,27.80
2019-02-21T13:27:14.647Z,26.27
2019-02-21T13:29:43.028Z,31.83
2019-02-21T13:32:11.416Z,24.80
2019-02-21T13:34:39.796Z,31.77
2019-02-21T13:37:08.189Z,38.10
2019-02-21T13:39:36.590Z,26.30
2019-02-21T13:42:04.963Z,27.67
2019-02-21T13:44:33.360Z,30.63
2019-02-21T13:47:01.744Z,28.87
2019-02-21T13:49:30.127Z,31.93
2019-02-21T13:51:58.519Z,27.43
2019-02-21T13:54:26.899Z,27.60
2019-02-21T13:56:55.295Z,33.33
2019-02-21T13:59:23.676Z,26.30
2019-02-21T14:01:52.074Z,33.83
2019-02-21T14:04:20.452Z,32.33
2019-02-21T14:06:48.847Z,31.87
2019-02-21T14:09:17.238Z,27.53
2019-02-21T14:11:45.626Z,29.70
2019-02-21T14:14:14.028Z,26.87
2019-02-21T14:16:46.487Z,28.37
2019-02-21T14:19:12.529Z,26.60
2019-02-21T14:21:43.543Z,24.17
2019-02-21T14:24:11.037Z,26.73
2019-02-21T14:26:39.420Z,25.40
2019-02-21T14:29:07.816Z,27.33
2019-02-21T14:31:36.214Z,19.50
2019-02-21T14:34:04.593Z,26.47
2019-02-21T14:36:33.014Z,25.87
2019-02-21T14:39:01.379Z,25.67
2019-02-21T14:41:29.768Z,30.90
2019-02-21T14:44:00.422Z,21.90
2019-02-21T14:46:28.276Z,27.97
2019-02-21T14:48:56.657Z,28.80
2019-02-21T14:51:25.035Z,24.27
2019-02-21T14:53:53.424Z,26.07
2019-02-21T14:56:21.821Z,26.67
2019-02-21T14:58:50.200Z,24.17
2019-02-21T15:01:18.588Z,28.53
2019-02-21T15:03:46.976Z,29.10
2019-02-21T15:06:26.451Z,29.43
2019-02-21T15:08:45.465Z,29.97
2019-02-21T15:11:14.735Z,31.73
2019-02-21T15:13:43.116Z,29.60
2019-02-21T15:16:11.499Z,33.20
2019-02-21T15:18:39.892Z,35.37
2019-02-21T15:21:08.279Z,32.80
2019-02-21T15:23:37.172Z,37.53
2019-02-21T15:26:05.740Z,30.97
2019-02-21T15:28:34.132Z,34.03
2019-02-21T15:31:02.527Z,33.57
2019-02-21T15:33:30.911Z,32.80
2019-02-21T15:35:59.299Z,30.43
2019-02-21T15:38:27.688Z,31.33
2019-02-21T15:40:56.084Z,30.80
2019-02-21T15:43:24.468Z,30.23
2019-02-21T15:45:52.878Z,43.60
2019-02-21T15:48:21.306Z,35.17
2019-02-21T15:50:49.716Z,27.70
2019-02-21T15:53:18.091Z,32.07
2019-02-21T15:55:46.486Z,30.17
2019-02-21T15:58:14.878Z,31.57
2019-02-21T16:00:43.259Z,33.87
2019-02-21T16:03:11.648Z,37.70
2019-02-21T16:05:40.056Z,34.03
2019-02-21T16:08:08.416Z,32.70
2019-02-21T16:10:39.666Z,34.67
2019-02-21T16:13:07.050Z,41.03
2019-02-21T16:15:35.500Z,36.87
2019-02-21T16:18:03.885Z,39.00
2019-02-21T16:20:32.279Z,35.40
2019-02-21T16:23:00.659Z,35.63
2019-02-21T16:25:31.744Z,36.67
2019-02-21T16:28:00.126Z,40.23
2019-02-21T16:30:28.512Z,40.60
2019-02-21T16:32:56.893Z,33.77
2019-02-21T16:35:27.226Z,34.77
2019-02-21T16:37:55.400Z,41.30
2019-02-21T16:40:23.772Z,36.50
2019-02-21T16:42:52.163Z,34.47
2019-02-21T16:45:21.870Z,37.40
2019-02-21T16:47:50.322Z,41.97
2019-02-21T16:50:29.272Z,38.33
2019-02-21T16:52:48.878Z,39.40
2019-02-21T16:55:20.040Z,39.23
2019-02-21T16:57:48.513Z,40.70
2019-02-21T17:00:18.547Z,45.47
2019-02-21T17:02:46.930Z,44.00
2019-02-21T17:05:15.792Z,42.47
2019-02-21T17:07:44.340Z,51.70
2019-02-21T17:10:17.356Z,46.70
2019-02-21T17:12:45.740Z,44.17
2019-02-21T17:15:15.872Z,47.10
2019-02-21T17:17:44.247Z,45.03
2019-02-21T17:20:20.387Z,50.83
2019-02-21T17:22:48.786Z,51.60
2019-02-21T17:25:17.236Z,46.30
2019-02-21T17:27:46.003Z,54.83
2019-02-21T17:30:18.506Z,46.77
2019-02-21T17:32:46.899Z,45.60
2019-02-21T17:35:15.451Z,48.57
2019-02-21T17:37:43.971Z,49.90
2019-02-21T17:40:15.374Z,50.97
2019-02-21T17:42:43.771Z,50.13
2019-02-21T17:45:12.900Z,54.00
2019-02-21T17:47:41.301Z,51.83
2019-02-21T17:50:11.828Z,47.90
2019-02-21T17:52:40.227Z,45.63
2019-02-21T17:55:10.261Z,48.13
2019-02-21T17:57:38.639Z,48.63
2019-02-21T18:00:12.568Z,50.10
2019-02-21T18:02:40.956Z,45.87
2019-02-21T18:05:10.496Z,50.07
2019-02-21T18:07:38.890Z,54.83
2019-02-21T18:10:10.364Z,46.33
2019-02-21T18:12:38.747Z,48.30
2019-02-21T18:15:09.284Z,50.33
2019-02-21T18:17:37.668Z,45.80
2019-02-21T18:20:08.932Z,45.77
2019-02-21T18:22:37.316Z,47.03
2019-02-21T18:25:21.203Z,43.43
2019-02-21T18:27:49.588Z,50.57
2019-02-21T18:30:18.052Z,47.27
2019-02-21T18:32:46.435Z,47.17
2019-02-21T18:35:14.861Z,45.53
2019-02-21T18:37:47.432Z,49.97
2019-02-21T18:40:18.388Z,54.07
2019-02-21T18:42:46.480Z,54.37
2019-02-21T18:45:14.938Z,45.30
2019-02-21T18:47:43.332Z,55.43
2019-02-21T18:50:13.455Z,52.83
2019-02-21T18:52:41.864Z,55.13
2019-02-21T18:55:10.691Z,51.43
2019-02-21T18:57:39.085Z,55.17
2019-02-21T19:00:13.600Z,53.03
2019-02-21T19:02:42.003Z,63.33
2019-02-21T19:05:10.395Z,51.77
2019-02-21T19:07:38.787Z,51.80
2019-02-21T19:10:15.643Z,54.13
2019-02-21T19:12:44.035Z,55.93
2019-02-21T19:15:14.062Z,55.43
2019-02-21T19:17:42.448Z,54.93
2019-02-21T19:20:18.580Z,50.60
2019-02-21T19:22:46.964Z,54.67
2019-02-21T19:25:17.499Z,57.93
2019-02-21T19:27:45.961Z,53.00
2019-02-21T19:30:29.225Z,51.70
2019-02-21T19:32:57.778Z,51.17
2019-02-21T19:35:26.340Z,52.33
2019-02-21T19:37:54.738Z,50.73
2019-02-21T19:40:23.124Z,49.70
2019-02-21T19:42:51.511Z,46.23
2019-02-21T19:45:19.896Z,43.27
2019-02-21T19:47:48.294Z,52.50
2019-02-21T19:50:16.671Z,46.70
2019-02-21T19:52:45.136Z,40.93
2019-02-21T19:55:13.679Z,50.30
2019-02-21T19:57:42.072Z,47.20
2019-02-21T20:00:21.028Z,48.43
2019-02-21T20:02:49.411Z,44.90
2019-02-21T20:05:17.881Z,48.77
2019-02-21T20:07:46.347Z,48.60
2019-02-21T20:10:15.112Z,48.80
2019-02-21T20:12:43.563Z,47.43
2019-02-21T20:15:12.391Z,46.80
2019-02-21T20:17:40.916Z,44.20
2019-02-21T20:20:18.292Z,49.97
2019-02-21T20:22:46.763Z,40.00
2019-02-21T20:25:15.279Z,40.57
2019-02-21T20:27:43.739Z,48.23
2019-02-21T20:30:14.861Z,39.57
2019-02-21T20:32:43.340Z,40.10
2019-02-21T20:35:11.800Z,44.00
2019-02-21T20:37:40.187Z,47.20
2019-02-21T20:40:10.575Z,44.47
2019-02-21T20:42:38.980Z,47.33
2019-02-21T20:45:10.547Z,47.50
2019-02-21T20:47:38.944Z,40.87
2019-02-21T20:50:09.388Z,42.53
2019-02-21T20:52:37.771Z,44.53
2019-02-21T20:55:08.380Z,44.70
2019-02-21T20:57:36.840Z,53.43
2019-02-21T21:00:10.792Z,50.87
2019-02-21T21:02:39.184Z,45.50
2019-02-21T21:05:07.752Z,47.90
2019-02-21T21:07:36.155Z,51.40
2019-02-21T21:10:09.136Z,44.80
2019-02-21T21:12:37.529Z,48.43
2019-02-21T21:15:09.581Z,44.43
2019-02-21T21:17:38.223Z,48.10
2019-02-21T21:20:16.603Z,56.27
2019-02-21T21:22:39.360Z,49.47
2019-02-21T21:25:10.689Z,51.13
2019-02-21T21:27:39.080Z,61.30
2019-02-21T21:30:10.516Z,51.13
2019-02-21T21:32:38.892Z,47.00
2019-02-21T21:35:07.364Z,51.97
2019-02-21T21:37:35.747Z,53.57
2019-02-21T21:40:06.651Z,51.97
2019-02-21T21:42:35.047Z,57.07
2019-02-21T21:45:04.196Z,57.63
2019-02-21T21:47:32.579Z,58.53
2019-02-21T21:50:00.981Z,54.43
2019-02-21T21:52:29.364Z,50.70
2019-02-21T21:54:57.763Z,56.93
2019-02-21T21:57:26.148Z,51.33
2019-02-21T21:59:54.539Z,49.87
2019-02-21T22:02:22.928Z,49.30
2019-02-21T22:04:51.319Z,54.03
2019-02-21T22:07:19.707Z,46.97
2019-02-21T22:09:48.096Z,46.63
2019-02-21T22:12:16.546Z,48.83
2019-02-21T22:14:44.943Z,49.00
2019-02-21T22:17:13.324Z,52.17
2019-02-21T22:19:41.731Z,49.07
2019-02-21T22:22:10.103Z,48.73
2019-02-21T22:24:38.496Z,42.33
2019-02-21T22:27:06.876Z,50.37
2019-02-21T22:29:35.259Z,52.90
2019-02-21T22:32:03.653Z,47.57
2019-02-21T22:34:32.031Z,50.17
2019-02-21T22:37:00.433Z,56.97
2019-02-21T22:39:28.824Z,49.40
2019-02-21T22:41:57.199Z,51.83
2019-02-21T22:44:25.591Z,51.03
2019-02-21T22:46:53.972Z,49.57
2019-02-21T22:49:22.363Z,48.37
2019-02-21T22:51:50.747Z,49.40
2019-02-21T22:54:19.132Z,50.23
2019-02-21T22:56:47.523Z,53.53
2019-02-21T22:59:15.907Z,49.30
2019-02-21T23:01:44.367Z,48.87
2019-02-21T23:04:15.887Z,50.23
2019-02-21T23:06:59.257Z,47.67
2019-02-21T23:09:28.316Z,51.67
2019-02-21T23:11:56.844Z,51.50
2019-02-21T23:14:25.251Z,47.87
2019-02-21T23:16:53.649Z,47.17
2019-02-21T23:19:24.150Z,53.20
2019-02-21T23:21:52.143Z,47.90
2019-02-21T23:24:20.536Z,49.27
2019-02-21T23:26:48.920Z,50.60
2019-02-21T23:29:17.314Z,49.97
2019-02-21T23:31:45.708Z,47.57
2019-02-21T23:34:15.724Z,53.20
2019-02-21T23:36:44.479Z,48.83
2019-02-21T23:39:12.870Z,50.00
2019-02-21T23:41:41.264Z,57.63
2019-02-21T23:44:09.648Z,53.30
2019-02-21T23:46:38.036Z,54.70
2019-02-21T23:49:06.424Z,53.70
2019-02-21T23:51:34.811Z,52.87
2019-02-21T23:54:03.541Z,53.90
2019-02-21T23:56:31.967Z,55.17
2019-02-21T23:59:00.351Z,58.03
